sensor_id;sensor_type;location;lat;lon;timestamp;temperature;humidity
16172;DHT22;8192;53.596;10.166;2024-02-23T00:01:10;9.50;99.90
16172;DHT22;8192;53.596;10.166;2024-02-23T00:03:37;9.60;99.90
16172;DHT22;8192;53.596;10.166;2024-02-23T00:06:04;9.60;99.90
16172;DHT22;8192;53.596;10.166;2024-02-23T00:08:32;9.70;99.90
16172;DHT22;8192;53.596;10.166;2024-02-23T00:10:59;9.70;99.90
16172;DHT22;8192;53.596;10.166;2024-02-23T00:13:26;9.60;99.90
16172;DHT22;8192;53.596;10.166;2024-02-23T00:15:52;9.70;99.90
16172;DHT22;8192;53.596;10.166;2024-02-23T00:18:19;9.60;99.90
16172;DHT22;8192;53.596;10.166;2024-02-23T00:20:46;9.70;99.90
16172;DHT22;8192;53.596;10.166;2024-02-23T00:23:13;9.60;99.90
16172;DHT22;8192;53.596;10.166;2024-02-23T00:25:42;9.60;99.90
16172;DHT22;8192;53.596;10.166;2024-02-23T00:28:09;9.50;99.90
16172;DHT22;8192;53.596;10.166;2024-02-23T00:30:36;9.50;99.90
16172;DHT22;8192;53.596;10.166;2024-02-23T00:33:03;9.40;99.90
16172;DHT22;8192;53.596;10.166;2024-02-23T00:35:30;9.30;99.90
16172;DHT22;8192;53.596;10.166;2024-02-23T00:37:57;9.20;99.90
16172;DHT22;8192;53.596;10.166;2024-02-23T00:40:24;9.30;99.90
16172;DHT22;8192;53.596;10.166;2024-02-23T00:42:52;9.30;99.90
16172;DHT22;8192;53.596;10.166;2024-02-23T00:45:19;9.30;99.90
16172;DHT22;8192;53.596;10.166;2024-02-23T00:47:47;9.30;99.90
16172;DHT22;8192;53.596;10.166;2024-02-23T00:50:14;9.30;99.90
16172;DHT22;8192;53.596;10.166;2024-02-23T00:52:41;9.20;99.90
16172;DHT22;8192;53.596;10.166;2024-02-23T00:55:08;9.30;99.90
16172;DHT22;8192;53.596;10.166;2024-02-23T00:57:35;9.20;99.90
16172;DHT22;8192;53.596;10.166;2024-02-23T01:00:05;9.20;99.90
16172;DHT22;8192;53.596;10.166;2024-02-23T01:02:32;9.30;99.90
16172;DHT22;8192;53.596;10.166;2024-02-23T01:04:59;8.80;99.90
16172;DHT22;8192;53.596;10.166;2024-02-23T01:07:26;8.00;99.90
16172;DHT22;8192;53.596;10.166;2024-02-23T01:09:53;7.50;99.90
16172;DHT22;8192;53.596;10.166;2024-02-23T01:12:20;7.20;99.90
16172;DHT22;8192;53.596;10.166;2024-02-23T01:14:46;7.00;99.90
16172;DHT22;8192;53.596;10.166;2024-02-23T01:17:16;7.00;99.90
16172;DHT22;8192;53.596;10.166;2024-02-23T01:19:43;6.80;99.90
16172;DHT22;8192;53.596;10.166;2024-02-23T01:22:10;6.80;99.90
16172;DHT22;8192;53.596;10.166;2024-02-23T01:24:37;6.80;99.90
16172;DHT22;8192;53.596;10.166;2024-02-23T01:27:04;6.80;99.90
16172;DHT22;8192;53.596;10.166;2024-02-23T01:29:31;6.80;99.90
16172;DHT22;8192;53.596;10.166;2024-02-23T01:31:58;6.90;99.90
16172;DHT22;8192;53.596;10.166;2024-02-23T01:34:26;6.90;99.90
16172;DHT22;8192;53.596;10.166;2024-02-23T01:37:00;6.80;99.90
16172;DHT22;8192;53.596;10.166;2024-02-23T01:39:26;6.80;99.90
16172;DHT22;8192;53.596;10.166;2024-02-23T01:41:53;6.80;99.90
16172;DHT22;8192;53.596;10.166;2024-02-23T01:44:21;6.80;99.90
16172;DHT22;8192;53.596;10.166;2024-02-23T01:46:48;6.90;99.90
16172;DHT22;8192;53.596;10.166;2024-02-23T01:49:15;6.90;99.90
16172;DHT22;8192;53.596;10.166;2024-02-23T01:51:44;6.90;99.90
16172;DHT22;8192;53.596;10.166;2024-02-23T01:54:11;7.00;99.90
16172;DHT22;8192;53.596;10.166;2024-02-23T01:56:38;7.00;99.90
16172;DHT22;8192;53.596;10.166;2024-02-23T01:59:06;7.00;99.90
16172;DHT22;8192;53.596;10.166;2024-02-23T02:01:34;7.00;99.90
16172;DHT22;8192;53.596;10.166;2024-02-23T02:04:01;7.00;99.90
16172;DHT22;8192;53.596;10.166;2024-02-23T02:06:28;7.00;99.90
16172;DHT22;8192;53.596;10.166;2024-02-23T02:08:56;7.10;99.90
16172;DHT22;8192;53.596;10.166;2024-02-23T02:11:23;7.10;99.90
16172;DHT22;8192;53.596;10.166;2024-02-23T02:13:50;7.00;99.90
16172;DHT22;8192;53.596;10.166;2024-02-23T02:16:17;7.00;99.90
16172;DHT22;8192;53.596;10.166;2024-02-23T02:18:44;7.00;99.90
16172;DHT22;8192;53.596;10.166;2024-02-23T02:21:11;6.90;99.90
16172;DHT22;8192;53.596;10.166;2024-02-23T02:23:38;6.90;99.90
16172;DHT22;8192;53.596;10.166;2024-02-23T02:26:07;6.90;99.90
16172;DHT22;8192;53.596;10.166;2024-02-23T02:28:34;6.80;99.90
16172;DHT22;8192;53.596;10.166;2024-02-23T02:31:03;6.80;99.90
16172;DHT22;8192;53.596;10.166;2024-02-23T02:33:30;6.70;99.90
16172;DHT22;8192;53.596;10.166;2024-02-23T02:35:57;6.70;99.90
16172;DHT22;8192;53.596;10.166;2024-02-23T02:38:24;6.70;99.90
16172;DHT22;8192;53.596;10.166;2024-02-23T02:40:51;6.60;99.90
16172;DHT22;8192;53.596;10.166;2024-02-23T02:43:19;6.60;99.90
16172;DHT22;8192;53.596;10.166;2024-02-23T02:45:46;6.60;99.90
16172;DHT22;8192;53.596;10.166;2024-02-23T02:48:13;6.50;99.90
16172;DHT22;8192;53.596;10.166;2024-02-23T02:50:40;6.50;99.90
16172;DHT22;8192;53.596;10.166;2024-02-23T02:53:07;6.50;99.90
16172;DHT22;8192;53.596;10.166;2024-02-23T02:55:34;6.50;99.90
16172;DHT22;8192;53.596;10.166;2024-02-23T02:58:01;6.50;99.90
16172;DHT22;8192;53.596;10.166;2024-02-23T03:00:29;6.40;99.90
16172;DHT22;8192;53.596;10.166;2024-02-23T03:02:56;6.30;99.90
16172;DHT22;8192;53.596;10.166;2024-02-23T03:05:23;6.20;99.90
16172;DHT22;8192;53.596;10.166;2024-02-23T03:07:50;6.20;99.90
16172;DHT22;8192;53.596;10.166;2024-02-23T03:10:17;6.20;99.90
16172;DHT22;8192;53.596;10.166;2024-02-23T03:12:44;6.20;99.90
16172;DHT22;8192;53.596;10.166;2024-02-23T03:15:11;6.20;99.90
16172;DHT22;8192;53.596;10.166;2024-02-23T03:17:39;6.20;99.90
16172;DHT22;8192;53.596;10.166;2024-02-23T03:20:07;6.20;99.90
16172;DHT22;8192;53.596;10.166;2024-02-23T03:22:34;6.20;99.90
16172;DHT22;8192;53.596;10.166;2024-02-23T03:25:01;6.10;99.90
16172;DHT22;8192;53.596;10.166;2024-02-23T03:27:34;6.10;99.90
16172;DHT22;8192;53.596;10.166;2024-02-23T03:30:02;6.00;99.90
16172;DHT22;8192;53.596;10.166;2024-02-23T03:32:29;6.00;99.90
16172;DHT22;8192;53.596;10.166;2024-02-23T03:34:58;6.10;99.90
16172;DHT22;8192;53.596;10.166;2024-02-23T03:37:27;6.00;99.90
16172;DHT22;8192;53.596;10.166;2024-02-23T03:39:53;6.10;99.90
16172;DHT22;8192;53.596;10.166;2024-02-23T03:42:20;6.10;99.90
16172;DHT22;8192;53.596;10.166;2024-02-23T03:44:47;6.10;99.90
16172;DHT22;8192;53.596;10.166;2024-02-23T03:47:14;6.10;99.90
16172;DHT22;8192;53.596;10.166;2024-02-23T03:49:41;6.00;99.90
16172;DHT22;8192;53.596;10.166;2024-02-23T03:52:09;6.00;99.90
16172;DHT22;8192;53.596;10.166;2024-02-23T03:54:36;6.00;99.90
16172;DHT22;8192;53.596;10.166;2024-02-23T03:57:03;5.90;99.90
16172;DHT22;8192;53.596;10.166;2024-02-23T03:59:30;5.90;99.90
16172;DHT22;8192;53.596;10.166;2024-02-23T04:01:57;5.90;99.90
16172;DHT22;8192;53.596;10.166;2024-02-23T04:04:24;5.80;99.90
16172;DHT22;8192;53.596;10.166;2024-02-23T04:06:51;5.80;99.90
16172;DHT22;8192;53.596;10.166;2024-02-23T04:09:20;5.70;99.90
16172;DHT22;8192;53.596;10.166;2024-02-23T04:11:48;5.70;99.90
16172;DHT22;8192;53.596;10.166;2024-02-23T04:14:15;5.60;99.90
16172;DHT22;8192;53.596;10.166;2024-02-23T04:16:42;5.70;99.90
16172;DHT22;8192;53.596;10.166;2024-02-23T04:19:09;5.70;99.90
16172;DHT22;8192;53.596;10.166;2024-02-23T04:21:36;5.70;99.90
16172;DHT22;8192;53.596;10.166;2024-02-23T04:24:03;5.70;99.90
16172;DHT22;8192;53.596;10.166;2024-02-23T04:26:31;5.70;99.90
16172;DHT22;8192;53.596;10.166;2024-02-23T04:28:58;5.80;99.90
16172;DHT22;8192;53.596;10.166;2024-02-23T04:31:25;5.90;99.90
16172;DHT22;8192;53.596;10.166;2024-02-23T04:33:52;5.90;99.90
16172;DHT22;8192;53.596;10.166;2024-02-23T04:36:19;6.00;99.90
16172;DHT22;8192;53.596;10.166;2024-02-23T04:38:46;6.00;99.90
16172;DHT22;8192;53.596;10.166;2024-02-23T04:41:13;6.00;99.90
16172;DHT22;8192;53.596;10.166;2024-02-23T04:43:41;6.00;99.90
16172;DHT22;8192;53.596;10.166;2024-02-23T04:46:08;6.10;99.90
16172;DHT22;8192;53.596;10.166;2024-02-23T04:48:35;6.00;99.90
16172;DHT22;8192;53.596;10.166;2024-02-23T04:51:02;6.00;99.90
16172;DHT22;8192;53.596;10.166;2024-02-23T04:53:29;5.90;99.90
16172;DHT22;8192;53.596;10.166;2024-02-23T04:55:56;5.90;99.90
16172;DHT22;8192;53.596;10.166;2024-02-23T04:58:23;5.90;99.90
16172;DHT22;8192;53.596;10.166;2024-02-23T05:00:52;5.90;99.90
16172;DHT22;8192;53.596;10.166;2024-02-23T05:03:19;5.90;99.90
16172;DHT22;8192;53.596;10.166;2024-02-23T05:05:46;5.90;99.90
16172;DHT22;8192;53.596;10.166;2024-02-23T05:08:13;6.00;99.90
16172;DHT22;8192;53.596;10.166;2024-02-23T05:10:40;6.10;99.90
16172;DHT22;8192;53.596;10.166;2024-02-23T05:13:07;6.00;99.90
16172;DHT22;8192;53.596;10.166;2024-02-23T05:15:34;6.00;99.90
16172;DHT22;8192;53.596;10.166;2024-02-23T05:18:02;5.90;99.90
16172;DHT22;8192;53.596;10.166;2024-02-23T05:20:29;5.90;99.90
16172;DHT22;8192;53.596;10.166;2024-02-23T05:22:56;5.90;99.90
16172;DHT22;8192;53.596;10.166;2024-02-23T05:25:23;5.90;99.90
16172;DHT22;8192;53.596;10.166;2024-02-23T05:27:51;5.80;99.90
16172;DHT22;8192;53.596;10.166;2024-02-23T05:30:18;5.80;99.90
16172;DHT22;8192;53.596;10.166;2024-02-23T05:32:45;5.70;99.90
16172;DHT22;8192;53.596;10.166;2024-02-23T05:35:14;5.70;99.90
16172;DHT22;8192;53.596;10.166;2024-02-23T05:37:41;5.70;99.90
16172;DHT22;8192;53.596;10.166;2024-02-23T05:40:08;5.60;99.90
16172;DHT22;8192;53.596;10.166;2024-02-23T05:42:36;5.60;99.90
16172;DHT22;8192;53.596;10.166;2024-02-23T05:45:04;5.60;99.90
16172;DHT22;8192;53.596;10.166;2024-02-23T05:47:34;5.50;99.90
16172;DHT22;8192;53.596;10.166;2024-02-23T05:50:01;5.40;99.90
16172;DHT22;8192;53.596;10.166;2024-02-23T05:52:31;5.50;99.90
16172;DHT22;8192;53.596;10.166;2024-02-23T05:54:58;5.70;99.90
16172;DHT22;8192;53.596;10.166;2024-02-23T05:57:25;5.80;99.90
16172;DHT22;8192;53.596;10.166;2024-02-23T05:59:52;5.80;99.90
16172;DHT22;8192;53.596;10.166;2024-02-23T06:02:20;5.70;99.90
16172;DHT22;8192;53.596;10.166;2024-02-23T06:04:47;5.80;99.90
16172;DHT22;8192;53.596;10.166;2024-02-23T06:07:14;5.70;99.90
16172;DHT22;8192;53.596;10.166;2024-02-23T06:09:43;5.80;99.90
16172;DHT22;8192;53.596;10.166;2024-02-23T06:12:10;5.80;99.90
16172;DHT22;8192;53.596;10.166;2024-02-23T06:14:37;5.80;99.90
16172;DHT22;8192;53.596;10.166;2024-02-23T06:17:05;5.90;99.90
16172;DHT22;8192;53.596;10.166;2024-02-23T06:19:33;5.90;99.90
16172;DHT22;8192;53.596;10.166;2024-02-23T06:22:01;5.90;99.90
16172;DHT22;8192;53.596;10.166;2024-02-23T06:24:27;5.90;99.90
16172;DHT22;8192;53.596;10.166;2024-02-23T06:26:56;5.90;99.90
16172;DHT22;8192;53.596;10.166;2024-02-23T06:29:25;5.90;99.90
16172;DHT22;8192;53.596;10.166;2024-02-23T06:31:52;5.80;99.90
16172;DHT22;8192;53.596;10.166;2024-02-23T06:34:19;5.80;99.90
16172;DHT22;8192;53.596;10.166;2024-02-23T06:36:47;5.80;99.90
16172;DHT22;8192;53.596;10.166;2024-02-23T06:39:14;5.80;99.90
16172;DHT22;8192;53.596;10.166;2024-02-23T06:41:43;5.80;99.90
16172;DHT22;8192;53.596;10.166;2024-02-23T06:44:12;5.70;99.90
16172;DHT22;8192;53.596;10.166;2024-02-23T06:46:39;5.60;99.90
16172;DHT22;8192;53.596;10.166;2024-02-23T06:49:06;5.60;99.90
16172;DHT22;8192;53.596;10.166;2024-02-23T06:51:33;5.60;99.90
16172;DHT22;8192;53.596;10.166;2024-02-23T06:54:02;5.60;99.90
16172;DHT22;8192;53.596;10.166;2024-02-23T06:56:30;5.70;99.90
16172;DHT22;8192;53.596;10.166;2024-02-23T06:58:57;5.70;99.90
16172;DHT22;8192;53.596;10.166;2024-02-23T07:01:29;5.70;99.90
16172;DHT22;8192;53.596;10.166;2024-02-23T07:03:56;5.70;99.90
16172;DHT22;8192;53.596;10.166;2024-02-23T07:06:24;5.70;99.90
16172;DHT22;8192;53.596;10.166;2024-02-23T07:08:51;5.80;99.90
16172;DHT22;8192;53.596;10.166;2024-02-23T07:11:17;5.80;99.90
16172;DHT22;8192;53.596;10.166;2024-02-23T07:13:44;5.80;99.90
16172;DHT22;8192;53.596;10.166;2024-02-23T07:16:11;5.90;99.90
16172;DHT22;8192;53.596;10.166;2024-02-23T07:18:45;6.00;99.90
16172;DHT22;8192;53.596;10.166;2024-02-23T07:21:12;6.10;99.90
16172;DHT22;8192;53.596;10.166;2024-02-23T07:23:39;6.20;99.90
16172;DHT22;8192;53.596;10.166;2024-02-23T07:26:06;6.40;99.90
16172;DHT22;8192;53.596;10.166;2024-02-23T07:28:33;6.70;99.90
16172;DHT22;8192;53.596;10.166;2024-02-23T07:31:00;6.70;99.90
16172;DHT22;8192;53.596;10.166;2024-02-23T07:33:27;6.70;99.90
16172;DHT22;8192;53.596;10.166;2024-02-23T07:35:55;6.60;99.90
16172;DHT22;8192;53.596;10.166;2024-02-23T07:38:22;6.50;99.90
16172;DHT22;8192;53.596;10.166;2024-02-23T07:40:49;6.40;99.90
16172;DHT22;8192;53.596;10.166;2024-02-23T07:43:16;6.40;99.90
16172;DHT22;8192;53.596;10.166;2024-02-23T07:45:43;6.40;99.90
16172;DHT22;8192;53.596;10.166;2024-02-23T07:48:10;6.40;99.90
16172;DHT22;8192;53.596;10.166;2024-02-23T07:50:37;6.50;99.90
16172;DHT22;8192;53.596;10.166;2024-02-23T07:53:05;6.60;99.90
16172;DHT22;8192;53.596;10.166;2024-02-23T07:55:32;6.60;99.90
16172;DHT22;8192;53.596;10.166;2024-02-23T07:57:59;6.60;99.90
16172;DHT22;8192;53.596;10.166;2024-02-23T08:00:27;6.60;99.90
16172;DHT22;8192;53.596;10.166;2024-02-23T08:02:54;6.50;99.90
16172;DHT22;8192;53.596;10.166;2024-02-23T08:05:22;6.40;99.90
16172;DHT22;8192;53.596;10.166;2024-02-23T08:07:49;6.40;99.90
16172;DHT22;8192;53.596;10.166;2024-02-23T08:10:18;6.40;99.90
16172;DHT22;8192;53.596;10.166;2024-02-23T08:12:47;6.40;99.90
16172;DHT22;8192;53.596;10.166;2024-02-23T08:15:14;6.50;99.90
16172;DHT22;8192;53.596;10.166;2024-02-23T08:17:41;6.50;99.90
16172;DHT22;8192;53.596;10.166;2024-02-23T08:20:09;6.60;99.90
16172;DHT22;8192;53.596;10.166;2024-02-23T08:22:36;6.80;99.90
16172;DHT22;8192;53.596;10.166;2024-02-23T08:25:05;6.90;99.90
16172;DHT22;8192;53.596;10.166;2024-02-23T08:27:33;7.00;99.90
16172;DHT22;8192;53.596;10.166;2024-02-23T08:30:00;7.00;99.90
16172;DHT22;8192;53.596;10.166;2024-02-23T08:32:27;7.10;99.90
16172;DHT22;8192;53.596;10.166;2024-02-23T08:34:55;7.10;99.90
16172;DHT22;8192;53.596;10.166;2024-02-23T08:37:25;7.10;99.90
16172;DHT22;8192;53.596;10.166;2024-02-23T08:39:51;7.10;99.90
16172;DHT22;8192;53.596;10.166;2024-02-23T08:42:28;7.10;99.90
16172;DHT22;8192;53.596;10.166;2024-02-23T08:44:56;7.10;99.90
16172;DHT22;8192;53.596;10.166;2024-02-23T08:47:23;7.10;99.90
16172;DHT22;8192;53.596;10.166;2024-02-23T08:49:53;7.20;99.90
16172;DHT22;8192;53.596;10.166;2024-02-23T08:52:20;7.30;99.90
16172;DHT22;8192;53.596;10.166;2024-02-23T08:54:47;7.40;99.90
16172;DHT22;8192;53.596;10.166;2024-02-23T08:57:14;7.40;99.90
16172;DHT22;8192;53.596;10.166;2024-02-23T08:59:44;7.40;99.90
16172;DHT22;8192;53.596;10.166;2024-02-23T09:02:13;7.50;99.90
16172;DHT22;8192;53.596;10.166;2024-02-23T09:04:41;7.40;99.90
16172;DHT22;8192;53.596;10.166;2024-02-23T09:07:10;7.50;99.90
16172;DHT22;8192;53.596;10.166;2024-02-23T09:09:37;7.60;99.90
16172;DHT22;8192;53.596;10.166;2024-02-23T09:12:05;7.70;99.90
16172;DHT22;8192;53.596;10.166;2024-02-23T09:14:36;7.70;99.90
16172;DHT22;8192;53.596;10.166;2024-02-23T09:17:03;7.70;99.90
16172;DHT22;8192;53.596;10.166;2024-02-23T09:19:32;7.60;99.90
16172;DHT22;8192;53.596;10.166;2024-02-23T09:21:59;7.60;99.90
16172;DHT22;8192;53.596;10.166;2024-02-23T09:24:27;7.70;99.90
16172;DHT22;8192;53.596;10.166;2024-02-23T09:26:54;7.70;99.90
16172;DHT22;8192;53.596;10.166;2024-02-23T09:29:21;7.70;99.90
16172;DHT22;8192;53.596;10.166;2024-02-23T09:31:49;7.80;99.90
16172;DHT22;8192;53.596;10.166;2024-02-23T09:34:16;7.90;99.90
16172;DHT22;8192;53.596;10.166;2024-02-23T09:36:44;7.90;99.90
16172;DHT22;8192;53.596;10.166;2024-02-23T09:39:11;8.00;99.90
16172;DHT22;8192;53.596;10.166;2024-02-23T09:41:39;8.00;99.90
16172;DHT22;8192;53.596;10.166;2024-02-23T09:44:07;7.90;99.90
16172;DHT22;8192;53.596;10.166;2024-02-23T09:46:37;7.90;99.90
16172;DHT22;8192;53.596;10.166;2024-02-23T09:49:05;7.90;99.90
16172;DHT22;8192;53.596;10.166;2024-02-23T09:51:34;8.00;99.90
16172;DHT22;8192;53.596;10.166;2024-02-23T09:54:03;8.10;99.90
16172;DHT22;8192;53.596;10.166;2024-02-23T09:56:30;8.30;99.90
16172;DHT22;8192;53.596;10.166;2024-02-23T09:59:01;8.40;99.90
16172;DHT22;8192;53.596;10.166;2024-02-23T10:01:30;8.60;99.90
16172;DHT22;8192;53.596;10.166;2024-02-23T10:04:00;8.70;99.90
16172;DHT22;8192;53.596;10.166;2024-02-23T10:06:28;8.70;99.90
16172;DHT22;8192;53.596;10.166;2024-02-23T10:08:55;8.60;99.90
16172;DHT22;8192;53.596;10.166;2024-02-23T10:11:24;8.50;99.90
16172;DHT22;8192;53.596;10.166;2024-02-23T10:13:52;8.60;99.90
16172;DHT22;8192;53.596;10.166;2024-02-23T10:16:19;8.70;99.90
16172;DHT22;8192;53.596;10.166;2024-02-23T10:18:48;8.70;99.90
16172;DHT22;8192;53.596;10.166;2024-02-23T10:21:15;8.50;99.90
16172;DHT22;8192;53.596;10.166;2024-02-23T10:23:42;8.60;99.90
16172;DHT22;8192;53.596;10.166;2024-02-23T10:26:10;8.70;99.90
16172;DHT22;8192;53.596;10.166;2024-02-23T10:28:39;8.80;99.90
16172;DHT22;8192;53.596;10.166;2024-02-23T10:31:06;8.90;99.90
16172;DHT22;8192;53.596;10.166;2024-02-23T10:33:35;9.10;99.90
16172;DHT22;8192;53.596;10.166;2024-02-23T10:36:04;9.30;99.90
16172;DHT22;8192;53.596;10.166;2024-02-23T10:38:35;9.60;99.90
16172;DHT22;8192;53.596;10.166;2024-02-23T10:41:05;9.60;99.90
16172;DHT22;8192;53.596;10.166;2024-02-23T10:43:38;9.70;99.90
16172;DHT22;8192;53.596;10.166;2024-02-23T10:46:09;9.60;99.90
16172;DHT22;8192;53.596;10.166;2024-02-23T10:48:39;9.60;99.90
16172;DHT22;8192;53.596;10.166;2024-02-23T10:51:07;9.60;99.90
16172;DHT22;8192;53.596;10.166;2024-02-23T10:53:34;9.70;99.90
16172;DHT22;8192;53.596;10.166;2024-02-23T10:56:03;9.50;99.90
16172;DHT22;8192;53.596;10.166;2024-02-23T10:58:31;9.30;99.90
16172;DHT22;8192;53.596;10.166;2024-02-23T11:01:00;9.30;99.90
16172;DHT22;8192;53.596;10.166;2024-02-23T11:03:32;9.30;99.90
16172;DHT22;8192;53.596;10.166;2024-02-23T11:05:59;9.40;99.90
16172;DHT22;8192;53.596;10.166;2024-02-23T11:08:28;9.20;99.90
16172;DHT22;8192;53.596;10.166;2024-02-23T11:10:55;9.00;99.90
16172;DHT22;8192;53.596;10.166;2024-02-23T11:13:30;9.10;99.90
16172;DHT22;8192;53.596;10.166;2024-02-23T11:16:01;9.10;99.90
16172;DHT22;8192;53.596;10.166;2024-02-23T11:18:32;9.10;99.90
16172;DHT22;8192;53.596;10.166;2024-02-23T11:21:03;9.20;99.90
16172;DHT22;8192;53.596;10.166;2024-02-23T11:23:40;9.10;99.90
16172;DHT22;8192;53.596;10.166;2024-02-23T11:26:09;9.20;99.90
16172;DHT22;8192;53.596;10.166;2024-02-23T11:28:48;9.30;99.90
16172;DHT22;8192;53.596;10.166;2024-02-23T11:31:18;9.10;99.90
16172;DHT22;8192;53.596;10.166;2024-02-23T11:33:51;9.00;99.90
16172;DHT22;8192;53.596;10.166;2024-02-23T11:36:22;9.00;99.90
16172;DHT22;8192;53.596;10.166;2024-02-23T11:38:52;8.90;99.90
16172;DHT22;8192;53.596;10.166;2024-02-23T11:41:24;8.90;99.90
16172;DHT22;8192;53.596;10.166;2024-02-23T11:43:51;9.00;99.90
16172;DHT22;8192;53.596;10.166;2024-02-23T11:46:19;9.20;99.90
16172;DHT22;8192;53.596;10.166;2024-02-23T11:48:47;9.30;99.90
16172;DHT22;8192;53.596;10.166;2024-02-23T11:51:21;9.30;99.90
16172;DHT22;8192;53.596;10.166;2024-02-23T11:53:49;9.40;99.90
16172;DHT22;8192;53.596;10.166;2024-02-23T11:56:16;9.50;99.90
16172;DHT22;8192;53.596;10.166;2024-02-23T11:58:44;9.70;99.90
16172;DHT22;8192;53.596;10.166;2024-02-23T12:01:11;9.70;99.90
16172;DHT22;8192;53.596;10.166;2024-02-23T12:03:38;9.70;99.90
16172;DHT22;8192;53.596;10.166;2024-02-23T12:06:05;9.60;99.90
16172;DHT22;8192;53.596;10.166;2024-02-23T12:08:34;9.50;99.90
16172;DHT22;8192;53.596;10.166;2024-02-23T12:11:05;9.40;99.90
16172;DHT22;8192;53.596;10.166;2024-02-23T12:13:33;9.40;99.90
16172;DHT22;8192;53.596;10.166;2024-02-23T12:16:01;9.40;99.90
16172;DHT22;8192;53.596;10.166;2024-02-23T12:18:28;9.50;99.90
16172;DHT22;8192;53.596;10.166;2024-02-23T12:20:59;9.50;99.90
16172;DHT22;8192;53.596;10.166;2024-02-23T12:23:37;9.50;99.90
16172;DHT22;8192;53.596;10.166;2024-02-23T12:26:06;9.50;99.90
16172;DHT22;8192;53.596;10.166;2024-02-23T12:28:33;9.60;99.90
16172;DHT22;8192;53.596;10.166;2024-02-23T12:31:00;9.70;99.90
16172;DHT22;8192;53.596;10.166;2024-02-23T12:33:28;9.60;99.90
16172;DHT22;8192;53.596;10.166;2024-02-23T12:35:56;9.60;99.90
16172;DHT22;8192;53.596;10.166;2024-02-23T12:38:24;9.50;99.90
16172;DHT22;8192;53.596;10.166;2024-02-23T12:40:52;9.50;99.90
16172;DHT22;8192;53.596;10.166;2024-02-23T12:43:20;9.30;99.90
16172;DHT22;8192;53.596;10.166;2024-02-23T12:45:49;9.20;99.90
16172;DHT22;8192;53.596;10.166;2024-02-23T12:48:17;9.30;99.90
16172;DHT22;8192;53.596;10.166;2024-02-23T12:50:44;9.40;99.90
16172;DHT22;8192;53.596;10.166;2024-02-23T12:53:30;9.50;99.90
16172;DHT22;8192;53.596;10.166;2024-02-23T12:55:58;9.70;99.90
16172;DHT22;8192;53.596;10.166;2024-02-23T12:58:27;9.80;99.90
16172;DHT22;8192;53.596;10.166;2024-02-23T13:00:54;9.80;99.90
16172;DHT22;8192;53.596;10.166;2024-02-23T13:03:21;9.80;99.90
16172;DHT22;8192;53.596;10.166;2024-02-23T13:05:48;9.60;99.90
16172;DHT22;8192;53.596;10.166;2024-02-23T13:08:15;9.50;99.90
16172;DHT22;8192;53.596;10.166;2024-02-23T13:10:41;9.50;99.90
16172;DHT22;8192;53.596;10.166;2024-02-23T13:13:08;9.40;99.90
16172;DHT22;8192;53.596;10.166;2024-02-23T13:15:37;9.30;99.90
16172;DHT22;8192;53.596;10.166;2024-02-23T13:18:04;9.30;99.90
16172;DHT22;8192;53.596;10.166;2024-02-23T13:20:31;9.20;99.90
16172;DHT22;8192;53.596;10.166;2024-02-23T13:22:58;9.30;99.90
16172;DHT22;8192;53.596;10.166;2024-02-23T13:25:25;9.40;99.90
16172;DHT22;8192;53.596;10.166;2024-02-23T13:27:52;9.60;99.90
16172;DHT22;8192;53.596;10.166;2024-02-23T13:30:19;9.70;99.90
16172;DHT22;8192;53.596;10.166;2024-02-23T13:32:47;9.70;99.90
16172;DHT22;8192;53.596;10.166;2024-02-23T13:35:14;9.70;99.90
16172;DHT22;8192;53.596;10.166;2024-02-23T13:37:43;9.80;99.90
16172;DHT22;8192;53.596;10.166;2024-02-23T13:40:10;9.60;99.90
16172;DHT22;8192;53.596;10.166;2024-02-23T13:42:37;9.60;99.90
16172;DHT22;8192;53.596;10.166;2024-02-23T13:45:06;9.50;99.90
16172;DHT22;8192;53.596;10.166;2024-02-23T13:47:34;9.30;99.90
16172;DHT22;8192;53.596;10.166;2024-02-23T13:50:03;9.10;99.90
16172;DHT22;8192;53.596;10.166;2024-02-23T13:52:30;9.10;99.90
16172;DHT22;8192;53.596;10.166;2024-02-23T13:54:57;9.20;99.90
16172;DHT22;8192;53.596;10.166;2024-02-23T13:57:24;9.20;99.90
16172;DHT22;8192;53.596;10.166;2024-02-23T13:59:51;9.20;99.90
16172;DHT22;8192;53.596;10.166;2024-02-23T14:02:24;9.20;99.90
16172;DHT22;8192;53.596;10.166;2024-02-23T14:04:52;9.10;99.90
16172;DHT22;8192;53.596;10.166;2024-02-23T14:07:20;9.00;99.90
16172;DHT22;8192;53.596;10.166;2024-02-23T14:09:47;9.00;99.90
16172;DHT22;8192;53.596;10.166;2024-02-23T14:12:15;9.00;99.90
16172;DHT22;8192;53.596;10.166;2024-02-23T14:14:43;9.00;99.90
16172;DHT22;8192;53.596;10.166;2024-02-23T14:17:10;9.10;99.90
16172;DHT22;8192;53.596;10.166;2024-02-23T14:19:37;9.30;99.90
16172;DHT22;8192;53.596;10.166;2024-02-23T14:22:04;9.30;99.90
16172;DHT22;8192;53.596;10.166;2024-02-23T14:24:33;9.30;99.90
16172;DHT22;8192;53.596;10.166;2024-02-23T14:27:00;9.50;99.90
16172;DHT22;8192;53.596;10.166;2024-02-23T14:29:27;9.50;99.90
16172;DHT22;8192;53.596;10.166;2024-02-23T14:31:54;9.60;99.90
16172;DHT22;8192;53.596;10.166;2024-02-23T14:34:21;9.70;99.90
16172;DHT22;8192;53.596;10.166;2024-02-23T14:36:49;9.80;99.90
16172;DHT22;8192;53.596;10.166;2024-02-23T14:39:16;9.80;99.90
16172;DHT22;8192;53.596;10.166;2024-02-23T14:41:44;9.70;99.90
16172;DHT22;8192;53.596;10.166;2024-02-23T14:44:11;9.70;99.90
16172;DHT22;8192;53.596;10.166;2024-02-23T14:46:38;9.50;99.90
16172;DHT22;8192;53.596;10.166;2024-02-23T14:49:07;9.30;99.90
16172;DHT22;8192;53.596;10.166;2024-02-23T14:51:34;9.10;99.90
16172;DHT22;8192;53.596;10.166;2024-02-23T14:54:02;9.20;99.90
16172;DHT22;8192;53.596;10.166;2024-02-23T14:56:29;9.20;99.90
16172;DHT22;8192;53.596;10.166;2024-02-23T14:59:06;9.30;99.90
16172;DHT22;8192;53.596;10.166;2024-02-23T15:01:35;9.30;99.90
16172;DHT22;8192;53.596;10.166;2024-02-23T15:04:02;9.30;99.90
16172;DHT22;8192;53.596;10.166;2024-02-23T15:06:30;9.40;99.90
16172;DHT22;8192;53.596;10.166;2024-02-23T15:08:57;9.50;99.90
16172;DHT22;8192;53.596;10.166;2024-02-23T15:11:24;9.50;99.90
16172;DHT22;8192;53.596;10.166;2024-02-23T15:13:51;9.40;99.90
16172;DHT22;8192;53.596;10.166;2024-02-23T15:16:24;9.40;99.90
16172;DHT22;8192;53.596;10.166;2024-02-23T15:18:51;9.30;99.90
16172;DHT22;8192;53.596;10.166;2024-02-23T15:21:18;9.20;99.90
16172;DHT22;8192;53.596;10.166;2024-02-23T15:23:45;9.20;99.90
16172;DHT22;8192;53.596;10.166;2024-02-23T15:26:14;9.10;99.90
16172;DHT22;8192;53.596;10.166;2024-02-23T15:28:41;9.10;99.90
16172;DHT22;8192;53.596;10.166;2024-02-23T15:31:18;9.00;99.90
16172;DHT22;8192;53.596;10.166;2024-02-23T15:33:48;9.00;99.90
16172;DHT22;8192;53.596;10.166;2024-02-23T15:36:15;9.00;99.90
16172;DHT22;8192;53.596;10.166;2024-02-23T15:38:42;9.00;99.90
16172;DHT22;8192;53.596;10.166;2024-02-23T15:41:09;9.00;99.90
16172;DHT22;8192;53.596;10.166;2024-02-23T15:43:36;8.90;99.90
16172;DHT22;8192;53.596;10.166;2024-02-23T15:46:03;8.80;99.90
16172;DHT22;8192;53.596;10.166;2024-02-23T15:48:30;8.80;99.90